sensor_id;sensor_type;location;lat;lon;timestamp;P1;durP1;ratioP1;P2;durP2;ratioP2
36253;SDS011;22291;52.250;21.228;2022-09-09T00:04:40;14.03;;;7.55;;
36253;SDS011;22291;52.250;21.228;2022-09-09T00:10:05;19.45;;;8.60;;
36253;SDS011;22291;52.250;21.228;2022-09-09T00:16:04;13.08;;;7.65;;
36253;SDS011;22291;52.250;21.228;2022-09-09T00:18:51;12.30;;;7.35;;
36253;SDS011;22291;52.250;21.228;2022-09-09T00:21:37;14.20;;;7.70;;
36253;SDS011;22291;52.250;21.228;2022-09-09T00:24:23;14.85;;;8.13;;
36253;SDS011;22291;52.250;21.228;2022-09-09T00:27:04;16.20;;;8.48;;
36253;SDS011;22291;52.250;21.228;2022-09-09T00:29:46;14.55;;;8.43;;
36253;SDS011;22291;52.250;21.228;2022-09-09T00:32:22;14.03;;;7.72;;
36253;SDS011;22291;52.250;21.228;2022-09-09T00:34:58;15.00;;;7.62;;
36253;SDS011;22291;52.250;21.228;2022-09-09T00:37:28;13.72;;;7.78;;
36253;SDS011;22291;52.250;21.228;2022-09-09T00:40:01;16.42;;;8.35;;
36253;SDS011;22291;52.250;21.228;2022-09-09T00:42:44;15.48;;;8.33;;
36253;SDS011;22291;52.250;21.228;2022-09-09T00:50:49;11.40;;;7.15;;
36253;SDS011;22291;52.250;21.228;2022-09-09T00:56:29;12.53;;;7.58;;
36253;SDS011;22291;52.250;21.228;2022-09-09T00:59:15;17.45;;;7.85;;
36253;SDS011;22291;52.250;21.228;2022-09-09T01:01:52;16.35;;;9.13;;
36253;SDS011;22291;52.250;21.228;2022-09-09T01:04:23;12.43;;;8.13;;
36253;SDS011;22291;52.250;21.228;2022-09-09T01:07:15;14.68;;;9.10;;
36253;SDS011;22291;52.250;21.228;2022-09-09T01:09:52;18.17;;;9.38;;
36253;SDS011;22291;52.250;21.228;2022-09-09T01:15:08;13.32;;;8.45;;
36253;SDS011;22291;52.250;21.228;2022-09-09T01:17:50;14.80;;;9.88;;
36253;SDS011;22291;52.250;21.228;2022-09-09T01:26:19;17.52;;;9.45;;
36253;SDS011;22291;52.250;21.228;2022-09-09T01:29:01;15.68;;;9.65;;
36253;SDS011;22291;52.250;21.228;2022-09-09T01:31:30;15.38;;;10.18;;
36253;SDS011;22291;52.250;21.228;2022-09-09T01:34:02;14.73;;;9.65;;
36253;SDS011;22291;52.250;21.228;2022-09-09T01:36:37;20.48;;;9.88;;
36253;SDS011;22291;52.250;21.228;2022-09-09T01:39:07;18.60;;;10.13;;
36253;SDS011;22291;52.250;21.228;2022-09-09T01:41:33;17.35;;;10.05;;
36253;SDS011;22291;52.250;21.228;2022-09-09T01:43:59;16.25;;;10.23;;
36253;SDS011;22291;52.250;21.228;2022-09-09T01:46:25;16.82;;;10.35;;
36253;SDS011;22291;52.250;21.228;2022-09-09T01:48:54;16.60;;;10.35;;
36253;SDS011;22291;52.250;21.228;2022-09-09T01:51:22;17.85;;;10.05;;
36253;SDS011;22291;52.250;21.228;2022-09-09T01:53:49;21.00;;;11.25;;
36253;SDS011;22291;52.250;21.228;2022-09-09T02:07:27;21.75;;;11.68;;
36253;SDS011;22291;52.250;21.228;2022-09-09T02:10:02;17.50;;;9.65;;
36253;SDS011;22291;52.250;21.228;2022-09-09T02:13:09;19.15;;;11.38;;
36253;SDS011;22291;52.250;21.228;2022-09-09T02:18:15;17.62;;;11.18;;
36253;SDS011;22291;52.250;21.228;2022-09-09T02:20:47;16.80;;;11.45;;
36253;SDS011;22291;52.250;21.228;2022-09-09T02:23:13;21.97;;;11.75;;
36253;SDS011;22291;52.250;21.228;2022-09-09T02:25:40;17.07;;;11.48;;
36253;SDS011;22291;52.250;21.228;2022-09-09T02:28:09;17.13;;;11.53;;
36253;SDS011;22291;52.250;21.228;2022-09-09T02:30:38;16.52;;;11.05;;
36253;SDS011;22291;52.250;21.228;2022-09-09T02:33:07;19.32;;;11.50;;
36253;SDS011;22291;52.250;21.228;2022-09-09T02:35:36;15.90;;;10.63;;
36253;SDS011;22291;52.250;21.228;2022-09-09T02:38:12;16.67;;;10.63;;
36253;SDS011;22291;52.250;21.228;2022-09-09T02:40:35;18.90;;;10.58;;
36253;SDS011;22291;52.250;21.228;2022-09-09T02:43:01;17.87;;;10.28;;
36253;SDS011;22291;52.250;21.228;2022-09-09T02:45:34;19.17;;;10.32;;
36253;SDS011;22291;52.250;21.228;2022-09-09T02:48:14;19.32;;;10.10;;
36253;SDS011;22291;52.250;21.228;2022-09-09T02:53:36;13.62;;;9.20;;
36253;SDS011;22291;52.250;21.228;2022-09-09T02:56:14;15.08;;;9.08;;
36253;SDS011;22291;52.250;21.228;2022-09-09T02:58:41;14.93;;;9.85;;
36253;SDS011;22291;52.250;21.228;2022-09-09T03:01:07;17.42;;;10.90;;
36253;SDS011;22291;52.250;21.228;2022-09-09T03:03:34;16.00;;;10.05;;
36253;SDS011;22291;52.250;21.228;2022-09-09T03:06:01;13.40;;;9.83;;
36253;SDS011;22291;52.250;21.228;2022-09-09T03:08:27;12.45;;;8.88;;
36253;SDS011;22291;52.250;21.228;2022-09-09T03:10:54;19.23;;;10.38;;
36253;SDS011;22291;52.250;21.228;2022-09-09T03:13:21;15.28;;;9.83;;
36253;SDS011;22291;52.250;21.228;2022-09-09T03:15:47;12.40;;;9.10;;
36253;SDS011;22291;52.250;21.228;2022-09-09T03:18:14;13.30;;;9.78;;
36253;SDS011;22291;52.250;21.228;2022-09-09T03:20:40;15.35;;;9.35;;
36253;SDS011;22291;52.250;21.228;2022-09-09T03:23:08;14.83;;;9.78;;
36253;SDS011;22291;52.250;21.228;2022-09-09T03:25:34;14.55;;;9.40;;
36253;SDS011;22291;52.250;21.228;2022-09-09T03:28:01;18.40;;;9.88;;
36253;SDS011;22291;52.250;21.228;2022-09-09T03:30:28;13.22;;;9.85;;
36253;SDS011;22291;52.250;21.228;2022-09-09T03:32:54;13.93;;;9.38;;
36253;SDS011;22291;52.250;21.228;2022-09-09T03:35:22;14.68;;;9.45;;
36253;SDS011;22291;52.250;21.228;2022-09-09T03:37:48;12.03;;;9.28;;
36253;SDS011;22291;52.250;21.228;2022-09-09T03:40:14;18.65;;;8.93;;
36253;SDS011;22291;52.250;21.228;2022-09-09T03:42:41;14.38;;;9.15;;
36253;SDS011;22291;52.250;21.228;2022-09-09T03:45:08;13.00;;;10.00;;
36253;SDS011;22291;52.250;21.228;2022-09-09T03:47:36;15.10;;;9.93;;
36253;SDS011;22291;52.250;21.228;2022-09-09T03:50:04;16.27;;;9.88;;
36253;SDS011;22291;52.250;21.228;2022-09-09T03:52:37;15.13;;;9.55;;
36253;SDS011;22291;52.250;21.228;2022-09-09T03:55:08;13.53;;;9.15;;
36253;SDS011;22291;52.250;21.228;2022-09-09T03:57:35;11.70;;;8.30;;
36253;SDS011;22291;52.250;21.228;2022-09-09T04:00:05;13.65;;;9.45;;
36253;SDS011;22291;52.250;21.228;2022-09-09T04:02:33;12.50;;;8.20;;
36253;SDS011;22291;52.250;21.228;2022-09-09T04:04:59;14.40;;;9.70;;
36253;SDS011;22291;52.250;21.228;2022-09-09T04:07:26;11.95;;;8.73;;
36253;SDS011;22291;52.250;21.228;2022-09-09T04:09:53;14.47;;;8.75;;
36253;SDS011;22291;52.250;21.228;2022-09-09T04:12:20;13.53;;;8.68;;
36253;SDS011;22291;52.250;21.228;2022-09-09T04:14:46;13.22;;;8.83;;
36253;SDS011;22291;52.250;21.228;2022-09-09T04:17:12;13.60;;;7.80;;
36253;SDS011;22291;52.250;21.228;2022-09-09T04:19:38;10.82;;;7.25;;
36253;SDS011;22291;52.250;21.228;2022-09-09T04:22:04;8.43;;;7.33;;
36253;SDS011;22291;52.250;21.228;2022-09-09T04:24:30;13.03;;;8.25;;
36253;SDS011;22291;52.250;21.228;2022-09-09T04:26:56;8.78;;;7.58;;
36253;SDS011;22291;52.250;21.228;2022-09-09T04:29:23;10.23;;;6.90;;
36253;SDS011;22291;52.250;21.228;2022-09-09T04:31:49;11.60;;;7.85;;
36253;SDS011;22291;52.250;21.228;2022-09-09T04:34:15;12.00;;;7.60;;
36253;SDS011;22291;52.250;21.228;2022-09-09T04:36:41;11.97;;;8.10;;
36253;SDS011;22291;52.250;21.228;2022-09-09T04:39:08;12.10;;;8.23;;
36253;SDS011;22291;52.250;21.228;2022-09-09T04:41:34;14.73;;;8.23;;
36253;SDS011;22291;52.250;21.228;2022-09-09T04:44:00;10.88;;;7.25;;
36253;SDS011;22291;52.250;21.228;2022-09-09T04:46:26;11.40;;;6.87;;
36253;SDS011;22291;52.250;21.228;2022-09-09T04:48:53;8.20;;;7.03;;
36253;SDS011;22291;52.250;21.228;2022-09-09T04:51:19;10.70;;;7.65;;
36253;SDS011;22291;52.250;21.228;2022-09-09T04:53:45;10.72;;;7.25;;
36253;SDS011;22291;52.250;21.228;2022-09-09T04:56:14;9.20;;;7.00;;
36253;SDS011;22291;52.250;21.228;2022-09-09T04:58:43;9.40;;;6.62;;
36253;SDS011;22291;52.250;21.228;2022-09-09T05:01:10;8.18;;;6.22;;
36253;SDS011;22291;52.250;21.228;2022-09-09T05:03:44;11.85;;;5.97;;
36253;SDS011;22291;52.250;21.228;2022-09-09T05:06:12;10.70;;;8.53;;
36253;SDS011;22291;52.250;21.228;2022-09-09T05:11:18;8.85;;;6.58;;
36253;SDS011;22291;52.250;21.228;2022-09-09T05:13:53;7.03;;;5.60;;
36253;SDS011;22291;52.250;21.228;2022-09-09T05:16:20;8.23;;;5.87;;
36253;SDS011;22291;52.250;21.228;2022-09-09T05:18:48;7.35;;;5.53;;
36253;SDS011;22291;52.250;21.228;2022-09-09T05:21:17;6.95;;;5.47;;
36253;SDS011;22291;52.250;21.228;2022-09-09T05:23:45;7.75;;;6.05;;
36253;SDS011;22291;52.250;21.228;2022-09-09T05:26:18;6.08;;;5.37;;
36253;SDS011;22291;52.250;21.228;2022-09-09T05:28:42;6.72;;;5.70;;
36253;SDS011;22291;52.250;21.228;2022-09-09T05:31:10;6.67;;;5.35;;
36253;SDS011;22291;52.250;21.228;2022-09-09T05:33:39;6.92;;;5.42;;
36253;SDS011;22291;52.250;21.228;2022-09-09T05:36:09;6.55;;;5.50;;
36253;SDS011;22291;52.250;21.228;2022-09-09T05:38:40;7.17;;;5.65;;
36253;SDS011;22291;52.250;21.228;2022-09-09T05:41:08;7.70;;;5.95;;
36253;SDS011;22291;52.250;21.228;2022-09-09T05:43:36;7.53;;;5.58;;
36253;SDS011;22291;52.250;21.228;2022-09-09T05:46:08;7.62;;;5.70;;
36253;SDS011;22291;52.250;21.228;2022-09-09T05:48:40;7.55;;;5.78;;
36253;SDS011;22291;52.250;21.228;2022-09-09T05:51:14;8.53;;;6.20;;
36253;SDS011;22291;52.250;21.228;2022-09-09T05:53:41;10.25;;;6.03;;
36253;SDS011;22291;52.250;21.228;2022-09-09T05:56:09;6.00;;;5.45;;
36253;SDS011;22291;52.250;21.228;2022-09-09T05:58:48;9.15;;;5.95;;
36253;SDS011;22291;52.250;21.228;2022-09-09T06:01:16;10.28;;;6.22;;
36253;SDS011;22291;52.250;21.228;2022-09-09T06:03:45;8.45;;;6.60;;
36253;SDS011;22291;52.250;21.228;2022-09-09T06:06:20;8.40;;;7.37;;
36253;SDS011;22291;52.250;21.228;2022-09-09T06:08:56;8.18;;;6.05;;
36253;SDS011;22291;52.250;21.228;2022-09-09T06:11:24;8.45;;;6.50;;
36253;SDS011;22291;52.250;21.228;2022-09-09T06:13:53;7.53;;;6.60;;
36253;SDS011;22291;52.250;21.228;2022-09-09T06:16:21;7.75;;;6.40;;
36253;SDS011;22291;52.250;21.228;2022-09-09T06:18:50;10.58;;;7.30;;
36253;SDS011;22291;52.250;21.228;2022-09-09T06:21:19;9.78;;;7.37;;
36253;SDS011;22291;52.250;21.228;2022-09-09T06:24:01;7.40;;;6.60;;
36253;SDS011;22291;52.250;21.228;2022-09-09T06:26:29;9.83;;;6.92;;
36253;SDS011;22291;52.250;21.228;2022-09-09T06:28:58;9.55;;;7.90;;
36253;SDS011;22291;52.250;21.228;2022-09-09T06:31:28;9.13;;;7.30;;
36253;SDS011;22291;52.250;21.228;2022-09-09T06:33:56;9.20;;;7.45;;
36253;SDS011;22291;52.250;21.228;2022-09-09T06:36:25;9.93;;;7.03;;
36253;SDS011;22291;52.250;21.228;2022-09-09T06:38:55;8.45;;;7.12;;
36253;SDS011;22291;52.250;21.228;2022-09-09T06:41:23;9.15;;;7.58;;
36253;SDS011;22291;52.250;21.228;2022-09-09T06:43:52;13.58;;;9.25;;
36253;SDS011;22291;52.250;21.228;2022-09-09T06:46:19;10.75;;;7.80;;
36253;SDS011;22291;52.250;21.228;2022-09-09T06:48:53;10.30;;;7.55;;
36253;SDS011;22291;52.250;21.228;2022-09-09T06:53:52;12.10;;;8.45;;
36253;SDS011;22291;52.250;21.228;2022-09-09T06:56:28;21.10;;;17.60;;
36253;SDS011;22291;52.250;21.228;2022-09-09T06:58:59;11.40;;;8.60;;
36253;SDS011;22291;52.250;21.228;2022-09-09T07:01:30;9.83;;;8.63;;
36253;SDS011;22291;52.250;21.228;2022-09-09T07:06:28;11.97;;;7.92;;
36253;SDS011;22291;52.250;21.228;2022-09-09T07:08:59;12.47;;;8.98;;
36253;SDS011;22291;52.250;21.228;2022-09-09T07:11:31;11.25;;;8.75;;
36253;SDS011;22291;52.250;21.228;2022-09-09T07:14:00;14.38;;;9.18;;
36253;SDS011;22291;52.250;21.228;2022-09-09T07:16:27;12.58;;;10.03;;
36253;SDS011;22291;52.250;21.228;2022-09-09T07:18:55;11.12;;;9.78;;
36253;SDS011;22291;52.250;21.228;2022-09-09T07:21:23;12.07;;;9.18;;
36253;SDS011;22291;52.250;21.228;2022-09-09T07:23:52;13.55;;;9.83;;
36253;SDS011;22291;52.250;21.228;2022-09-09T07:26:20;13.80;;;9.63;;
36253;SDS011;22291;52.250;21.228;2022-09-09T07:28:49;16.10;;;11.35;;
36253;SDS011;22291;52.250;21.228;2022-09-09T07:31:17;13.62;;;10.08;;
36253;SDS011;22291;52.250;21.228;2022-09-09T07:33:47;14.80;;;9.85;;
36253;SDS011;22291;52.250;21.228;2022-09-09T07:38:52;13.30;;;9.23;;
36253;SDS011;22291;52.250;21.228;2022-09-09T07:41:19;13.43;;;9.63;;
36253;SDS011;22291;52.250;21.228;2022-09-09T07:43:50;12.53;;;8.93;;
36253;SDS011;22291;52.250;21.228;2022-09-09T07:46:22;12.70;;;9.03;;
36253;SDS011;22291;52.250;21.228;2022-09-09T07:51:31;12.68;;;9.33;;
36253;SDS011;22291;52.250;21.228;2022-09-09T07:53:59;14.35;;;9.55;;
36253;SDS011;22291;52.250;21.228;2022-09-09T07:56:29;13.85;;;10.25;;
36253;SDS011;22291;52.250;21.228;2022-09-09T07:58:57;14.28;;;10.25;;
36253;SDS011;22291;52.250;21.228;2022-09-09T08:01:26;13.60;;;9.75;;
36253;SDS011;22291;52.250;21.228;2022-09-09T08:04:00;12.95;;;9.23;;
36253;SDS011;22291;52.250;21.228;2022-09-09T08:06:31;11.97;;;9.15;;
36253;SDS011;22291;52.250;21.228;2022-09-09T08:09:04;11.65;;;8.95;;
36253;SDS011;22291;52.250;21.228;2022-09-09T08:11:32;12.93;;;9.80;;
36253;SDS011;22291;52.250;21.228;2022-09-09T08:13:58;13.75;;;9.35;;
36253;SDS011;22291;52.250;21.228;2022-09-09T08:16:26;15.23;;;10.82;;
36253;SDS011;22291;52.250;21.228;2022-09-09T08:18:56;14.87;;;10.05;;
36253;SDS011;22291;52.250;21.228;2022-09-09T08:21:25;16.52;;;9.80;;
36253;SDS011;22291;52.250;21.228;2022-09-09T08:23:55;14.78;;;10.25;;
36253;SDS011;22291;52.250;21.228;2022-09-09T08:26:25;14.80;;;10.28;;
36253;SDS011;22291;52.250;21.228;2022-09-09T08:28:57;17.02;;;10.65;;
36253;SDS011;22291;52.250;21.228;2022-09-09T08:31:27;19.40;;;11.67;;
36253;SDS011;22291;52.250;21.228;2022-09-09T08:34:03;16.30;;;10.30;;
36253;SDS011;22291;52.250;21.228;2022-09-09T08:36:39;16.15;;;10.63;;
36253;SDS011;22291;52.250;21.228;2022-09-09T08:39:09;14.80;;;9.73;;
36253;SDS011;22291;52.250;21.228;2022-09-09T08:46:57;16.02;;;10.68;;
36253;SDS011;22291;52.250;21.228;2022-09-09T08:55:44;18.25;;;11.18;;
36253;SDS011;22291;52.250;21.228;2022-09-09T09:12:00;19.10;;;11.65;;
36253;SDS011;22291;52.250;21.228;2022-09-09T09:14:28;18.85;;;11.55;;
36253;SDS011;22291;52.250;21.228;2022-09-09T09:17:00;16.82;;;12.18;;
36253;SDS011;22291;52.250;21.228;2022-09-09T09:19:32;18.70;;;12.05;;
36253;SDS011;22291;52.250;21.228;2022-09-09T09:30:28;18.70;;;12.10;;
36253;SDS011;22291;52.250;21.228;2022-09-09T09:33:08;20.35;;;13.78;;
36253;SDS011;22291;52.250;21.228;2022-09-09T09:35:57;17.30;;;12.88;;
36253;SDS011;22291;52.250;21.228;2022-09-09T09:38:26;18.73;;;12.45;;
36253;SDS011;22291;52.250;21.228;2022-09-09T09:43:26;20.05;;;13.53;;
36253;SDS011;22291;52.250;21.228;2022-09-09T09:46:02;24.50;;;13.75;;
36253;SDS011;22291;52.250;21.228;2022-09-09T09:48:30;23.20;;;14.65;;
36253;SDS011;22291;52.250;21.228;2022-09-09T09:51:08;20.65;;;13.50;;
36253;SDS011;22291;52.250;21.228;2022-09-09T09:53:40;21.65;;;13.85;;
36253;SDS011;22291;52.250;21.228;2022-09-09T09:56:08;23.35;;;14.38;;
36253;SDS011;22291;52.250;21.228;2022-09-09T10:01:22;22.85;;;14.40;;
36253;SDS011;22291;52.250;21.228;2022-09-09T10:03:59;21.73;;;14.10;;
36253;SDS011;22291;52.250;21.228;2022-09-09T10:06:32;22.58;;;14.55;;
36253;SDS011;22291;52.250;21.228;2022-09-09T10:09:17;22.00;;;14.60;;
36253;SDS011;22291;52.250;21.228;2022-09-09T10:11:57;24.37;;;15.15;;
36253;SDS011;22291;52.250;21.228;2022-09-09T10:22:50;26.10;;;17.02;;
36253;SDS011;22291;52.250;21.228;2022-09-09T10:25:34;34.92;;;18.73;;
36253;SDS011;22291;52.250;21.228;2022-09-09T10:33:50;25.80;;;16.77;;
36253;SDS011;22291;52.250;21.228;2022-09-09T10:36:24;28.10;;;17.77;;
36253;SDS011;22291;52.250;21.228;2022-09-09T10:56:09;25.30;;;15.80;;
36253;SDS011;22291;52.250;21.228;2022-09-09T10:58:37;25.10;;;17.20;;
36253;SDS011;22291;52.250;21.228;2022-09-09T11:01:19;23.57;;;15.50;;
36253;SDS011;22291;52.250;21.228;2022-09-09T11:07:05;25.55;;;15.98;;
36253;SDS011;22291;52.250;21.228;2022-09-09T11:09:50;26.50;;;17.57;;
36253;SDS011;22291;52.250;21.228;2022-09-09T11:12:17;25.35;;;17.15;;
36253;SDS011;22291;52.250;21.228;2022-09-09T11:15:06;27.77;;;17.37;;
36253;SDS011;22291;52.250;21.228;2022-09-09T11:17:49;24.82;;;15.70;;
36253;SDS011;22291;52.250;21.228;2022-09-09T11:20:22;26.23;;;16.62;;
36253;SDS011;22291;52.250;21.228;2022-09-09T11:25:27;25.65;;;17.70;;
36253;SDS011;22291;52.250;21.228;2022-09-09T11:28:17;30.02;;;18.25;;
36253;SDS011;22291;52.250;21.228;2022-09-09T11:33:51;29.72;;;18.42;;
36253;SDS011;22291;52.250;21.228;2022-09-09T11:37:06;25.77;;;17.55;;
36253;SDS011;22291;52.250;21.228;2022-09-09T11:42:46;29.87;;;17.10;;
36253;SDS011;22291;52.250;21.228;2022-09-09T11:47:56;23.75;;;16.10;;
36253;SDS011;22291;52.250;21.228;2022-09-09T11:53:04;27.65;;;17.52;;
36253;SDS011;22291;52.250;21.228;2022-09-09T11:56:11;25.37;;;17.42;;
36253;SDS011;22291;52.250;21.228;2022-09-09T11:58:43;29.67;;;17.40;;
36253;SDS011;22291;52.250;21.228;2022-09-09T12:01:26;26.10;;;16.97;;
36253;SDS011;22291;52.250;21.228;2022-09-09T12:06:46;26.97;;;17.67;;
36253;SDS011;22291;52.250;21.228;2022-09-09T12:09:48;28.47;;;18.70;;
36253;SDS011;22291;52.250;21.228;2022-09-09T12:12:31;29.05;;;16.80;;
36253;SDS011;22291;52.250;21.228;2022-09-09T12:17:43;31.37;;;20.70;;
36253;SDS011;22291;52.250;21.228;2022-09-09T12:31:44;28.20;;;17.90;;
36253;SDS011;22291;52.250;21.228;2022-09-09T12:34:41;29.40;;;18.17;;
36253;SDS011;22291;52.250;21.228;2022-09-09T12:40:02;26.20;;;17.62;;
36253;SDS011;22291;52.250;21.228;2022-09-09T12:42:32;23.87;;;17.32;;
36253;SDS011;22291;52.250;21.228;2022-09-09T12:45:00;31.27;;;19.98;;
36253;SDS011;22291;52.250;21.228;2022-09-09T12:50:23;25.97;;;16.93;;
36253;SDS011;22291;52.250;21.228;2022-09-09T12:52:57;28.42;;;17.12;;
36253;SDS011;22291;52.250;21.228;2022-09-09T12:55:29;26.97;;;17.77;;
36253;SDS011;22291;52.250;21.228;2022-09-09T12:57:58;26.33;;;18.50;;
36253;SDS011;22291;52.250;21.228;2022-09-09T13:00:29;25.68;;;17.25;;
36253;SDS011;22291;52.250;21.228;2022-09-09T13:02:57;29.55;;;18.52;;
36253;SDS011;22291;52.250;21.228;2022-09-09T13:05:34;31.87;;;18.60;;
36253;SDS011;22291;52.250;21.228;2022-09-09T13:08:02;29.10;;;19.12;;
36253;SDS011;22291;52.250;21.228;2022-09-09T13:10:36;25.57;;;17.17;;
36253;SDS011;22291;52.250;21.228;2022-09-09T13:13:23;28.98;;;17.65;;
36253;SDS011;22291;52.250;21.228;2022-09-09T13:16:07;28.05;;;17.40;;
36253;SDS011;22291;52.250;21.228;2022-09-09T13:18:52;26.68;;;18.07;;
36253;SDS011;22291;52.250;21.228;2022-09-09T13:21:30;27.95;;;17.90;;
36253;SDS011;22291;52.250;21.228;2022-09-09T13:24:01;24.18;;;17.65;;
36253;SDS011;22291;52.250;21.228;2022-09-09T13:26:29;29.05;;;18.25;;
36253;SDS011;22291;52.250;21.228;2022-09-09T13:28:55;24.63;;;17.60;;
36253;SDS011;22291;52.250;21.228;2022-09-09T13:31:43;34.27;;;18.50;;
36253;SDS011;22291;52.250;21.228;2022-09-09T13:34:22;30.35;;;18.62;;
36253;SDS011;22291;52.250;21.228;2022-09-09T13:37:00;28.62;;;18.62;;
36253;SDS011;22291;52.250;21.228;2022-09-09T13:39:32;31.40;;;17.45;;
36253;SDS011;22291;52.250;21.228;2022-09-09T13:44:29;26.80;;;18.23;;
36253;SDS011;22291;52.250;21.228;2022-09-09T13:47:04;27.98;;;17.77;;
36253;SDS011;22291;52.250;21.228;2022-09-09T13:49:34;28.80;;;18.35;;
36253;SDS011;22291;52.250;21.228;2022-09-09T13:52:08;31.05;;;19.62;;
36253;SDS011;22291;52.250;21.228;2022-09-09T13:54:37;26.80;;;17.73;;
36253;SDS011;22291;52.250;21.228;2022-09-09T13:57:04;29.30;;;18.42;;
36253;SDS011;22291;52.250;21.228;2022-09-09T13:59:31;28.62;;;19.40;;
36253;SDS011;22291;52.250;21.228;2022-09-09T14:01:57;28.55;;;18.67;;
36253;SDS011;22291;52.250;21.228;2022-09-09T14:04:24;28.10;;;19.15;;
36253;SDS011;22291;52.250;21.228;2022-09-09T14:06:51;26.95;;;18.55;;
36253;SDS011;22291;52.250;21.228;2022-09-09T14:09:17;29.05;;;18.02;;
36253;SDS011;22291;52.250;21.228;2022-09-09T14:11:44;25.97;;;19.17;;
36253;SDS011;22291;52.250;21.228;2022-09-09T14:14:11;33.95;;;18.92;;
36253;SDS011;22291;52.250;21.228;2022-09-09T14:16:37;25.95;;;17.70;;
36253;SDS011;22291;52.250;21.228;2022-09-09T14:19:03;30.27;;;19.75;;
36253;SDS011;22291;52.250;21.228;2022-09-09T14:21:30;28.35;;;19.23;;
36253;SDS011;22291;52.250;21.228;2022-09-09T14:23:56;29.12;;;17.52;;
36253;SDS011;22291;52.250;21.228;2022-09-09T14:26:23;29.40;;;19.98;;
36253;SDS011;22291;52.250;21.228;2022-09-09T14:28:51;28.67;;;17.98;;
36253;SDS011;22291;52.250;21.228;2022-09-09T14:31:18;29.35;;;19.42;;
36253;SDS011;22291;52.250;21.228;2022-09-09T14:33:44;33.80;;;19.23;;
36253;SDS011;22291;52.250;21.228;2022-09-09T14:36:11;31.00;;;19.15;;
36253;SDS011;22291;52.250;21.228;2022-09-09T14:38:38;31.73;;;20.05;;
36253;SDS011;22291;52.250;21.228;2022-09-09T14:41:05;30.48;;;19.85;;
36253;SDS011;22291;52.250;21.228;2022-09-09T14:43:32;33.58;;;20.72;;
36253;SDS011;22291;52.250;21.228;2022-09-09T14:46:05;32.78;;;20.00;;
36253;SDS011;22291;52.250;21.228;2022-09-09T14:48:33;30.27;;;19.10;;
36253;SDS011;22291;52.250;21.228;2022-09-09T14:51:05;28.02;;;19.82;;
36253;SDS011;22291;52.250;21.228;2022-09-09T14:53:34;31.57;;;20.20;;
36253;SDS011;22291;52.250;21.228;2022-09-09T14:56:09;33.18;;;20.72;;
36253;SDS011;22291;52.250;21.228;2022-09-09T14:58:35;30.70;;;19.92;;
36253;SDS011;22291;52.250;21.228;2022-09-09T15:01:10;32.38;;;21.17;;
36253;SDS011;22291;52.250;21.228;2022-09-09T15:03:39;34.45;;;22.50;;
36253;SDS011;22291;52.250;21.228;2022-09-09T15:08:37;30.75;;;20.02;;
36253;SDS011;22291;52.250;21.228;2022-09-09T15:11:07;30.55;;;20.90;;
36253;SDS011;22291;52.250;21.228;2022-09-09T15:13:34;34.78;;;20.97;;
36253;SDS011;22291;52.250;21.228;2022-09-09T15:16:21;32.60;;;20.25;;
36253;SDS011;22291;52.250;21.228;2022-09-09T15:18:43;33.70;;;20.77;;
36253;SDS011;22291;52.250;21.228;2022-09-09T15:21:12;29.85;;;20.65;;
36253;SDS011;22291;52.250;21.228;2022-09-09T15:23:42;31.97;;;21.50;;
36253;SDS011;22291;52.250;21.228;2022-09-09T15:26:09;34.10;;;21.07;;
36253;SDS011;22291;52.250;21.228;2022-09-09T15:28:36;36.65;;;20.82;;
36253;SDS011;22291;52.250;21.228;2022-09-09T15:31:05;28.90;;;19.25;;
36253;SDS011;22291;52.250;21.228;2022-09-09T15:33:39;31.27;;;21.05;;
36253;SDS011;22291;52.250;21.228;2022-09-09T15:36:17;32.83;;;20.45;;
36253;SDS011;22291;52.250;21.228;2022-09-09T15:38:57;33.53;;;20.52;;
36253;SDS011;22291;52.250;21.228;2022-09-09T15:41:26;35.25;;;21.05;;
36253;SDS011;22291;52.250;21.228;2022-09-09T15:43:54;30.50;;;20.57;;
36253;SDS011;22291;52.250;21.228;2022-09-09T15:48:58;33.53;;;20.40;;
36253;SDS011;22291;52.250;21.228;2022-09-09T15:51:30;36.70;;;20.48;;
36253;SDS011;22291;52.250;21.228;2022-09-09T15:53:58;34.90;;;21.25;;
36253;SDS011;22291;52.250;21.228;2022-09-09T15:56:26;36.60;;;21.07;;
36253;SDS011;22291;52.250;21.228;2022-09-09T15:58:58;34.55;;;21.42;;
36253;SDS011;22291;52.250;21.228;2022-09-09T16:01:29;33.33;;;21.00;;
36253;SDS011;22291;52.250;21.228;2022-09-09T16:03:57;34.92;;;20.72;;
36253;SDS011;22291;52.250;21.228;2022-09-09T16:06:25;33.25;;;20.62;;
36253;SDS011;22291;52.250;21.228;2022-09-09T16:08:54;34.35;;;21.60;;
36253;SDS011;22291;52.250;21.228;2022-09-09T16:11:22;54.50;;;26.07;;
36253;SDS011;22291;52.250;21.228;2022-09-09T16:13:58;34.73;;;22.20;;
36253;SDS011;22291;52.250;21.228;2022-09-09T16:16:26;46.85;;;24.10;;
36253;SDS011;22291;52.250;21.228;2022-09-09T16:19:00;43.13;;;24.35;;
36253;SDS011;22291;52.250;21.228;2022-09-09T16:24:01;34.60;;;21.40;;
36253;SDS011;22291;52.250;21.228;2022-09-09T16:26:30;34.20;;;21.20;;
36253;SDS011;22291;52.250;21.228;2022-09-09T16:29:00;33.35;;;20.70;;
36253;SDS011;22291;52.250;21.228;2022-09-09T16:31:28;34.73;;;21.97;;
36253;SDS011;22291;52.250;21.228;2022-09-09T16:34:17;36.13;;;21.05;;
36253;SDS011;22291;52.250;21.228;2022-09-09T16:36:44;32.28;;;20.62;;
36253;SDS011;22291;52.250;21.228;2022-09-09T16:39:16;32.88;;;20.30;;
36253;SDS011;22291;52.250;21.228;2022-09-09T16:41:45;31.12;;;19.48;;
36253;SDS011;22291;52.250;21.228;2022-09-09T16:44:14;32.73;;;22.82;;
36253;SDS011;22291;52.250;21.228;2022-09-09T16:46:43;35.50;;;21.77;;
36253;SDS011;22291;52.250;21.228;2022-09-09T16:49:13;33.10;;;22.48;;
36253;SDS011;22291;52.250;21.228;2022-09-09T16:51:48;32.48;;;20.52;;
36253;SDS011;22291;52.250;21.228;2022-09-09T16:54:17;32.85;;;20.95;;
36253;SDS011;22291;52.250;21.228;2022-09-09T16:56:44;31.85;;;20.52;;
36253;SDS011;22291;52.250;21.228;2022-09-09T16:59:14;37.75;;;23.27;;
36253;SDS011;22291;52.250;21.228;2022-09-09T17:01:44;41.05;;;27.85;;
36253;SDS011;22291;52.250;21.228;2022-09-09T17:04:14;38.48;;;24.82;;
36253;SDS011;22291;52.250;21.228;2022-09-09T17:06:49;34.35;;;21.93;;
36253;SDS011;22291;52.250;21.228;2022-09-09T17:09:18;37.73;;;22.73;;
36253;SDS011;22291;52.250;21.228;2022-09-09T17:11:46;34.92;;;21.77;;
36253;SDS011;22291;52.250;21.228;2022-09-09T17:14:14;33.85;;;21.45;;
36253;SDS011;22291;52.250;21.228;2022-09-09T17:16:44;31.27;;;20.25;;
36253;SDS011;22291;52.250;21.228;2022-09-09T17:19:12;31.33;;;20.92;;
36253;SDS011;22291;52.250;21.228;2022-09-09T17:21:39;34.67;;;21.10;;
36253;SDS011;22291;52.250;21.228;2022-09-09T17:24:06;32.33;;;20.80;;
36253;SDS011;22291;52.250;21.228;2022-09-09T17:26:33;32.30;;;19.57;;
36253;SDS011;22291;52.250;21.228;2022-09-09T17:29:00;32.20;;;20.52;;
36253;SDS011;22291;52.250;21.228;2022-09-09T17:31:28;27.40;;;19.85;;
36253;SDS011;22291;52.250;21.228;2022-09-09T17:33:56;29.82;;;18.98;;
36253;SDS011;22291;52.250;21.228;2022-09-09T17:36:31;27.52;;;19.50;;